Time;durP1;ratioP1;P1;durP2;ratioP2;P2;SDS_P1;SDS_P2;PMS_P1;PMS_P2;Temp;Humidity;BMP_temperature;BMP_pressure;BME280_temperature;BME280_humidity;BME280_pressure;Samples;Min_cycle;Max_cycle;Signal;HPM_P1;HPM_P2
2023/06/27 00:01:17;;;;;;;4.32;3.95;;;;;;;;;;5036679;28;20032;-70
2023/06/27 00:03:42;;;;;;;6.60;3.83;;;;;;;;;;5035915;28;20028;-71
2023/06/27 00:06:07;;;;;;;6.32;4.22;;;;;;;;;;5014784;28;20038;-70
2023/06/27 00:08:33;;;;;;;4.55;3.92;;;;;;;;;;5015912;28;20045;-70
2023/06/27 00:10:59;;;;;;;4.18;3.88;;;;;;;;;;5016637;28;20025;-69
2023/06/27 00:13:25;;;;;;;3.85;3.55;;;;;;;;;;5016640;28;20025;-69
2023/06/27 00:15:52;;;;;;;4.18;3.72;;;;;;;;;;5016438;28;20025;-71
2023/06/27 00:18:22;;;;;;;6.68;4.05;;;;;;;;;;5015899;28;20026;-70
2023/06/27 00:20:48;;;;;;;6.75;4.18;;;;;;;;;;5016275;28;20025;-70
2023/06/27 00:23:21;;;;;;;5.32;3.47;;;;;;;;;;5016291;28;20087;-70
2023/06/27 00:25:47;;;;;;;4.13;3.80;;;;;;;;;;5015156;28;20413;-70
2023/06/27 00:28:12;;;;;;;4.60;3.90;;;;;;;;;;5015635;28;20026;-70
2023/06/27 00:30:38;;;;;;;5.25;3.90;;;;;;;;;;5015948;28;20045;-70
2023/06/27 00:33:03;;;;;;;4.07;3.67;;;;;;;;;;5016282;28;20427;-69
2023/06/27 00:35:33;;;;;;;6.68;4.22;;;;;;;;;;5016182;28;20100;-69
2023/06/27 00:38:02;;;;;;;3.78;3.47;;;;;;;;;;5013971;28;20029;-69
2023/06/27 00:40:27;;;;;;;4.65;3.83;;;;;;;;;;5014922;28;20472;-69
2023/06/27 00:42:52;;;;;;;5.22;3.63;;;;;;;;;;5014424;28;20061;-70
2023/06/27 00:45:19;;;;;;;4.13;3.72;;;;;;;;;;5015809;28;20026;-72
2023/06/27 00:47:45;;;;;;;6.55;4.13;;;;;;;;;;5015869;28;20041;-72
2023/06/27 00:50:10;;;;;;;6.35;4.50;;;;;;;;;;5015377;28;20026;-72
2023/06/27 00:52:37;;;;;;;4.72;4.32;;;;;;;;;;5013970;28;20038;-71
2023/06/27 00:55:03;;;;;;;5.00;3.78;;;;;;;;;;5013916;28;20080;-71
2023/06/27 00:57:29;;;;;;;6.93;3.90;;;;;;;;;;5015920;28;20080;-72
2023/06/27 00:59:55;;;;;;;4.85;3.97;;;;;;;;;;5014474;28;20044;-72
2023/06/27 01:02:23;;;;;;;4.70;3.88;;;;;;;;;;5015209;28;20487;-72
2023/06/27 01:04:58;;;;;;;4.60;3.75;;;;;;;;;;5013864;28;20472;-71
2023/06/27 01:07:29;;;;;;;4.45;4.00;;;;;;;;;;5033134;28;20057;-72
2023/06/27 01:09:57;;;;;;;4.85;4.53;;;;;;;;;;5035126;28;20059;-71
2023/06/27 01:12:31;;;;;;;5.00;4.38;;;;;;;;;;5033972;28;20079;-71
2023/06/27 01:14:57;;;;;;;4.82;4.43;;;;;;;;;;5001232;28;20037;-71
2023/06/27 01:17:25;;;;;;;6.18;4.70;;;;;;;;;;5017102;28;20387;-71
2023/06/27 01:19:53;;;;;;;6.38;4.80;;;;;;;;;;5017054;28;20035;-71
2023/06/27 01:22:23;;;;;;;5.57;5.07;;;;;;;;;;5034963;28;20044;-71
2023/06/27 01:24:48;;;;;;;5.57;4.97;;;;;;;;;;5034942;28;20041;-69
2023/06/27 01:27:16;;;;;;;7.00;4.95;;;;;;;;;;5017128;28;20044;-70
2023/06/27 01:29:42;;;;;;;6.53;5.45;;;;;;;;;;5017007;28;20029;-70
2023/06/27 01:32:13;;;;;;;7.30;5.75;;;;;;;;;;5034923;28;20029;-70
2023/06/27 01:34:56;;;;;;;6.70;4.90;;;;;;;;;;5016940;28;20063;-70
2023/06/27 01:37:33;;;;;;;5.78;5.15;;;;;;;;;;5034568;28;20033;-70
2023/06/27 01:40:11;;;;;;;4.93;4.50;;;;;;;;;;5034825;28;20079;-70
2023/06/27 01:42:39;;;;;;;5.38;4.85;;;;;;;;;;5034108;28;20448;-70
2023/06/27 01:45:06;;;;;;;5.43;4.78;;;;;;;;;;5032783;28;20036;-70
2023/06/27 01:47:32;;;;;;;5.10;4.60;;;;;;;;;;5016969;28;20049;-70
2023/06/27 01:49:58;;;;;;;5.75;5.20;;;;;;;;;;5034220;28;20047;-70
2023/06/27 01:52:23;;;;;;;6.70;5.53;;;;;;;;;;5034070;28;20104;-72
2023/06/27 01:54:48;;;;;;;6.47;5.55;;;;;;;;;;5033866;28;20033;-71
2023/06/27 01:57:14;;;;;;;7.38;5.90;;;;;;;;;;5033985;28;20040;-71
2023/06/27 01:59:41;;;;;;;6.32;5.35;;;;;;;;;;5016887;28;20132;-74
2023/06/27 02:02:06;;;;;;;6.90;5.70;;;;;;;;;;5032280;28;20028;-74
2023/06/27 02:04:32;;;;;;;6.70;5.38;;;;;;;;;;5032649;28;20468;-74
2023/06/27 02:06:58;;;;;;;8.20;5.28;;;;;;;;;;5033509;28;20124;-72
2023/06/27 02:09:24;;;;;;;6.28;5.68;;;;;;;;;;5034193;28;20489;-72
2023/06/27 02:11:49;;;;;;;6.88;5.38;;;;;;;;;;5016078;28;20137;-72
2023/06/27 02:14:15;;;;;;;5.03;4.15;;;;;;;;;;5032915;28;20364;-72
2023/06/27 02:16:40;;;;;;;5.82;4.50;;;;;;;;;;5016398;28;20033;-72
2023/06/27 02:19:07;;;;;;;4.78;4.22;;;;;;;;;;5016264;28;20052;-72
2023/06/27 02:21:32;;;;;;;6.05;5.38;;;;;;;;;;5034048;28;20025;-72
2023/06/27 02:23:58;;;;;;;6.55;5.22;;;;;;;;;;5016542;28;20049;-72
2023/06/27 02:26:23;;;;;;;6.30;4.93;;;;;;;;;;5033871;28;20434;-72
2023/06/27 02:28:50;;;;;;;6.82;5.90;;;;;;;;;;5016058;28;20033;-72
2023/06/27 02:31:15;;;;;;;5.70;4.68;;;;;;;;;;5016278;28;20387;-72
2023/06/27 02:33:40;;;;;;;5.15;4.68;;;;;;;;;;5033887;28;20022;-72
2023/06/27 02:36:06;;;;;;;6.22;5.28;;;;;;;;;;5016328;28;20018;-73
2023/06/27 02:38:31;;;;;;;5.72;5.15;;;;;;;;;;5033745;28;20467;-71
2023/06/27 02:40:56;;;;;;;5.78;5.10;;;;;;;;;;5015967;28;20383;-71
2023/06/27 02:43:22;;;;;;;6.50;5.47;;;;;;;;;;5015966;28;20455;-70
2023/06/27 02:45:47;;;;;;;5.95;5.40;;;;;;;;;;5033693;28;20061;-70
2023/06/27 02:48:12;;;;;;;5.88;5.38;;;;;;;;;;5015570;28;20490;-70
2023/06/27 02:50:38;;;;;;;5.43;4.93;;;;;;;;;;4999388;28;20029;-69
2023/06/27 02:53:03;;;;;;;5.53;4.97;;;;;;;;;;5015979;28;20111;-70
2023/06/27 02:55:28;;;;;;;5.80;5.28;;;;;;;;;;5015992;28;20518;-70
2023/06/27 02:57:54;;;;;;;6.28;5.45;;;;;;;;;;5015943;28;20399;-70
2023/06/27 03:00:20;;;;;;;7.13;6.05;;;;;;;;;;5015878;28;20120;-73
2023/06/27 03:02:46;;;;;;;5.90;5.38;;;;;;;;;;5016318;28;20456;-71
2023/06/27 03:05:12;;;;;;;5.63;5.05;;;;;;;;;;5015830;28;20108;-70
2023/06/27 03:07:37;;;;;;;5.05;4.60;;;;;;;;;;5015279;28;20133;-69
2023/06/27 03:10:03;;;;;;;5.55;5.05;;;;;;;;;;4999158;28;20053;-70
2023/06/27 03:12:29;;;;;;;4.07;3.80;;;;;;;;;;5016912;28;20475;-72
2023/06/27 03:14:54;;;;;;;5.60;5.18;;;;;;;;;;5035579;28;20083;-71
2023/06/27 03:17:22;;;;;;;5.43;4.93;;;;;;;;;;5003005;28;20061;-71
2023/06/27 03:19:47;;;;;;;6.10;5.05;;;;;;;;;;5002683;28;20072;-71
2023/06/27 03:22:14;;;;;;;6.55;5.60;;;;;;;;;;5037171;28;20022;-72
2023/06/27 03:24:40;;;;;;;6.55;5.85;;;;;;;;;;5018906;28;20378;-71
2023/06/27 03:27:05;;;;;;;6.78;6.13;;;;;;;;;;5036878;28;20057;-71
2023/06/27 03:29:33;;;;;;;6.07;5.57;;;;;;;;;;5035755;28;20120;-70
2023/06/27 03:31:59;;;;;;;5.82;5.13;;;;;;;;;;5018911;28;20060;-70
2023/06/27 03:34:26;;;;;;;5.43;4.88;;;;;;;;;;5036745;28;20060;-70
2023/06/27 03:36:51;;;;;;;6.18;5.60;;;;;;;;;;5018735;28;20455;-70
2023/06/27 03:39:17;;;;;;;5.75;5.25;;;;;;;;;;5036363;28;20116;-70
2023/06/27 03:41:42;;;;;;;5.55;5.13;;;;;;;;;;5037148;28;20379;-70
2023/06/27 03:44:08;;;;;;;6.50;5.97;;;;;;;;;;5018879;28;20026;-69
2023/06/27 03:46:34;;;;;;;6.18;5.40;;;;;;;;;;5035409;28;20463;-69
2023/06/27 03:49:02;;;;;;;6.43;5.85;;;;;;;;;;5019245;28;20014;-70
2023/06/27 03:51:27;;;;;;;6.35;5.82;;;;;;;;;;5037015;28;20025;-70
2023/06/27 03:53:52;;;;;;;5.63;5.22;;;;;;;;;;5018718;28;20048;-69
2023/06/27 03:56:18;;;;;;;6.95;6.05;;;;;;;;;;5019035;28;20025;-69
2023/06/27 03:58:43;;;;;;;6.13;5.55;;;;;;;;;;5035432;28;20091;-70
2023/06/27 04:01:11;;;;;;;6.68;5.93;;;;;;;;;;5018336;28;20029;-72
2023/06/27 04:03:37;;;;;;;6.13;5.57;;;;;;;;;;5019032;28;20084;-71
2023/06/27 04:06:04;;;;;;;5.90;5.43;;;;;;;;;;5015059;28;20085;-71
2023/06/27 04:08:30;;;;;;;5.32;4.78;;;;;;;;;;5015556;28;20503;-71
2023/06/27 04:10:55;;;;;;;5.40;5.00;;;;;;;;;;4998622;28;20029;-71
2023/06/27 04:13:20;;;;;;;3.55;3.20;;;;;;;;;;5015195;28;20472;-70
2023/06/27 04:15:46;;;;;;;4.28;3.97;;;;;;;;;;5016182;28;20357;-69
2023/06/27 04:18:13;;;;;;;7.55;5.20;;;;;;;;;;5015828;28;20171;-69
2023/06/27 04:20:38;;;;;;;7.00;6.30;;;;;;;;;;5015760;28;20113;-72
2023/06/27 04:23:04;;;;;;;6.22;5.63;;;;;;;;;;5014578;28;20037;-72
2023/06/27 04:25:32;;;;;;;6.78;6.18;;;;;;;;;;5013629;28;20479;-73
2023/06/27 04:27:58;;;;;;;6.03;5.43;;;;;;;;;;5014152;28;20063;-72
2023/06/27 04:30:23;;;;;;;6.13;5.55;;;;;;;;;;5015783;28;20037;-71
2023/06/27 04:32:49;;;;;;;7.65;6.95;;;;;;;;;;5016145;28;20105;-71
2023/06/27 04:35:18;;;;;;;5.95;5.50;;;;;;;;;;5012640;28;20029;-69
2023/06/27 04:37:44;;;;;;;4.40;4.07;;;;;;;;;;5015361;28;20113;-71
2023/06/27 04:40:11;;;;;;;4.90;4.55;;;;;;;;;;5015743;28;20053;-72
2023/06/27 04:42:37;;;;;;;7.38;4.80;;;;;;;;;;5015714;28;20029;-71
2023/06/27 04:45:02;;;;;;;4.75;4.35;;;;;;;;;;5015321;28;20374;-71
2023/06/27 04:47:28;;;;;;;4.25;3.88;;;;;;;;;;5015468;28;20105;-72
2023/06/27 04:49:54;;;;;;;4.80;4.32;;;;;;;;;;5015781;28;20040;-68
2023/06/27 04:52:19;;;;;;;4.15;3.85;;;;;;;;;;5015584;28;20021;-68
2023/06/27 04:54:49;;;;;;;4.45;4.15;;;;;;;;;;5015311;28;20071;-67
2023/06/27 04:57:17;;;;;;;4.60;4.30;;;;;;;;;;5015473;28;20038;-66
2023/06/27 04:59:42;;;;;;;4.35;4.05;;;;;;;;;;5015660;28;20038;-70
2023/06/27 05:02:07;;;;;;;4.80;4.40;;;;;;;;;;5014073;28;20041;-70
2023/06/27 05:04:33;;;;;;;5.20;4.45;;;;;;;;;;5014803;28;20088;-71
2023/06/27 05:06:58;;;;;;;5.18;4.78;;;;;;;;;;5029657;28;20050;-66
2023/06/27 05:09:24;;;;;;;4.93;4.55;;;;;;;;;;5034683;28;20103;-67
2023/06/27 05:11:49;;;;;;;4.32;3.88;;;;;;;;;;5016518;28;20403;-66
2023/06/27 05:14:14;;;;;;;6.30;4.53;;;;;;;;;;5017600;28;20021;-66
2023/06/27 05:16:40;;;;;;;4.38;3.63;;;;;;;;;;5017012;28;20028;-66
2023/06/27 05:19:06;;;;;;;5.20;4.50;;;;;;;;;;5035065;28;20041;-66
2023/06/27 05:21:31;;;;;;;4.30;3.95;;;;;;;;;;5016832;28;20044;-63
2023/06/27 05:23:58;;;;;;;5.13;4.25;;;;;;;;;;5035030;28;20452;-68
2023/06/27 05:26:24;;;;;;;4.55;4.25;;;;;;;;;;5034089;28;20423;-68
2023/06/27 05:28:50;;;;;;;4.05;3.75;;;;;;;;;;5016826;28;20035;-68
2023/06/27 05:31:16;;;;;;;4.15;3.85;;;;;;;;;;5016928;28;20473;-67
2023/06/27 05:33:41;;;;;;;3.47;3.20;;;;;;;;;;5034255;28;20018;-67
2023/06/27 05:36:08;;;;;;;3.90;3.38;;;;;;;;;;5034020;28;20041;-67
2023/06/27 05:38:34;;;;;;;4.30;3.90;;;;;;;;;;5015909;28;20030;-72
2023/06/27 05:41:03;;;;;;;4.95;3.35;;;;;;;;;;5017808;28;20101;-72
2023/06/27 05:43:29;;;;;;;4.50;3.80;;;;;;;;;;5034112;28;20424;-72
2023/06/27 05:45:54;;;;;;;3.95;3.50;;;;;;;;;;5032551;28;20033;-72
2023/06/27 05:48:20;;;;;;;3.35;2.83;;;;;;;;;;5032927;28;20030;-72
2023/06/27 05:50:45;;;;;;;2.60;2.50;;;;;;;;;;5032955;28;20473;-72
2023/06/27 05:53:11;;;;;;;3.88;2.97;;;;;;;;;;5015481;28;20041;-72
2023/06/27 05:55:37;;;;;;;2.70;2.50;;;;;;;;;;5031765;28;20017;-66
2023/06/27 05:58:02;;;;;;;2.53;2.33;;;;;;;;;;5015519;28;20029;-67
2023/06/27 06:00:28;;;;;;;3.47;2.83;;;;;;;;;;5034298;28;20028;-68
2023/06/27 06:02:53;;;;;;;2.85;2.65;;;;;;;;;;5015517;28;20029;-68
2023/06/27 06:05:19;;;;;;;3.47;2.97;;;;;;;;;;5032981;28;20108;-68
2023/06/27 06:07:44;;;;;;;3.75;2.90;;;;;;;;;;5014985;28;20033;-68
2023/06/27 06:10:10;;;;;;;3.58;2.95;;;;;;;;;;5032202;28;20061;-67
2023/06/27 06:12:36;;;;;;;5.40;2.95;;;;;;;;;;4996789;28;20112;-67
2023/06/27 06:15:01;;;;;;;2.72;2.47;;;;;;;;;;5031649;28;20037;-67
2023/06/27 06:17:27;;;;;;;3.97;3.08;;;;;;;;;;5031325;28;20041;-67
2023/06/27 06:19:52;;;;;;;4.90;3.17;;;;;;;;;;5013982;28;20021;-67
2023/06/27 06:22:18;;;;;;;6.50;2.95;;;;;;;;;;5031660;28;20083;-67
2023/06/27 06:24:43;;;;;;;5.78;2.83;;;;;;;;;;5032215;28;20029;-67
2023/06/27 06:27:08;;;;;;;4.88;2.83;;;;;;;;;;5033196;28;20383;-67
2023/06/27 06:29:34;;;;;;;3.63;2.38;;;;;;;;;;5033585;28;20079;-67
2023/06/27 06:31:59;;;;;;;2.60;2.40;;;;;;;;;;5033529;28;20455;-67
2023/06/27 06:34:24;;;;;;;3.15;2.80;;;;;;;;;;5033726;28;20021;-67
2023/06/27 06:36:50;;;;;;;3.10;2.33;;;;;;;;;;5015831;28;20029;-67
2023/06/27 06:39:15;;;;;;;3.70;2.60;;;;;;;;;;5033449;28;20026;-67
2023/06/27 06:41:40;;;;;;;3.85;2.22;;;;;;;;;;5033740;28;20116;-67
2023/06/27 06:44:09;;;;;;;2.55;2.35;;;;;;;;;;5015706;28;20028;-67
2023/06/27 06:46:35;;;;;;;2.60;2.40;;;;;;;;;;5033654;28;20112;-67
2023/06/27 06:49:00;;;;;;;3.30;2.63;;;;;;;;;;5036960;28;20037;-67
2023/06/27 06:51:25;;;;;;;2.50;2.20;;;;;;;;;;5037728;28;20084;-67
2023/06/27 06:53:51;;;;;;;5.28;2.78;;;;;;;;;;5019538;28;20099;-67
2023/06/27 06:56:16;;;;;;;4.40;2.30;;;;;;;;;;5037259;28;20116;-67
2023/06/27 06:58:41;;;;;;;4.20;2.20;;;;;;;;;;5037738;28;20033;-67
2023/06/27 07:01:07;;;;;;;3.75;2.60;;;;;;;;;;5037433;28;20037;-67
2023/06/27 07:03:33;;;;;;;4.53;2.42;;;;;;;;;;5037117;28;20017;-67
2023/06/27 07:05:59;;;;;;;4.40;2.65;;;;;;;;;;5019184;28;20041;-67
2023/06/27 07:08:24;;;;;;;3.53;2.28;;;;;;;;;;5036986;28;20048;-67
2023/06/27 07:10:50;;;;;;;4.03;2.58;;;;;;;;;;5037239;28;20360;-67
2023/06/27 07:13:15;;;;;;;3.55;2.63;;;;;;;;;;5037112;28;20030;-66
2023/06/27 07:15:40;;;;;;;4.47;2.65;;;;;;;;;;5037173;28;20049;-67
2023/06/27 07:18:06;;;;;;;3.05;2.53;;;;;;;;;;5036860;28;20029;-66
2023/06/27 07:20:31;;;;;;;3.53;2.85;;;;;;;;;;5036841;28;20021;-66
2023/06/27 07:22:56;;;;;;;5.25;2.65;;;;;;;;;;5036771;28;20116;-66
2023/06/27 07:25:21;;;;;;;4.13;3.00;;;;;;;;;;5037031;28;20029;-67
2023/06/27 07:27:47;;;;;;;4.15;2.95;;;;;;;;;;5036611;28;20108;-66
2023/06/27 07:30:12;;;;;;;2.53;2.33;;;;;;;;;;5036653;28;20032;-66
2023/06/27 07:32:38;;;;;;;3.78;2.72;;;;;;;;;;5018788;28;20062;-67
2023/06/27 07:35:06;;;;;;;6.15;2.72;;;;;;;;;;5018908;28;20068;-66
2023/06/27 07:37:31;;;;;;;2.95;2.67;;;;;;;;;;5036750;28;20464;-66
2023/06/27 07:39:57;;;;;;;3.00;2.80;;;;;;;;;;5036446;28;20029;-66
2023/06/27 07:42:23;;;;;;;3.47;2.65;;;;;;;;;;5036420;28;20029;-67
2023/06/27 07:44:48;;;;;;;7.70;3.08;;;;;;;;;;5036671;28;20022;-66
2023/06/27 07:47:14;;;;;;;3.67;2.92;;;;;;;;;;5018585;28;20033;-66
2023/06/27 07:49:39;;;;;;;6.15;2.70;;;;;;;;;;5018646;28;20029;-66
2023/06/27 07:52:09;;;;;;;4.13;3.13;;;;;;;;;;5018596;28;20459;-66
2023/06/27 07:54:34;;;;;;;3.27;2.93;;;;;;;;;;5018889;28;20041;-66
2023/06/27 07:57:00;;;;;;;3.70;2.90;;;;;;;;;;5018484;28;20383;-66
2023/06/27 07:59:25;;;;;;;4.68;3.22;;;;;;;;;;5017038;28;20033;-66
2023/06/27 08:01:50;;;;;;;5.25;3.05;;;;;;;;;;5036340;28;20018;-66
2023/06/27 08:04:18;;;;;;;4.90;2.90;;;;;;;;;;5036013;28;20027;-66
2023/06/27 08:06:43;;;;;;;7.10;3.38;;;;;;;;;;5035836;28;20091;-66
2023/06/27 08:09:08;;;;;;;3.55;3.10;;;;;;;;;;5036199;28;20037;-66
2023/06/27 08:11:34;;;;;;;3.95;3.08;;;;;;;;;;5036121;28;20021;-66
2023/06/27 08:13:59;;;;;;;3.47;3.17;;;;;;;;;;5036058;28;20033;-66
2023/06/27 08:16:25;;;;;;;3.78;3.42;;;;;;;;;;5036053;28;20021;-66
2023/06/27 08:18:50;;;;;;;4.95;3.30;;;;;;;;;;5018429;28;20037;-66
2023/06/27 08:21:15;;;;;;;8.10;3.40;;;;;;;;;;5035688;28;20021;-66
2023/06/27 08:23:42;;;;;;;4.85;3.15;;;;;;;;;;5035645;28;20022;-66
2023/06/27 08:26:07;;;;;;;6.05;3.75;;;;;;;;;;5018201;28;20044;-67
2023/06/27 08:28:33;;;;;;;4.15;3.15;;;;;;;;;;5035492;28;20392;-67
2023/06/27 08:30:58;;;;;;;3.75;3.40;;;;;;;;;;5017782;28;20021;-67
2023/06/27 08:33:25;;;;;;;3.53;3.22;;;;;;;;;;5035664;28;20037;-67
2023/06/27 08:35:50;;;;;;;3.72;2.72;;;;;;;;;;5035416;28;20032;-67
2023/06/27 08:38:17;;;;;;;3.55;2.92;;;;;;;;;;5017573;28;20030;-67
2023/06/27 08:40:42;;;;;;;3.08;2.80;;;;;;;;;;5035346;28;20100;-67
2023/06/27 08:43:09;;;;;;;3.55;2.75;;;;;;;;;;5035253;28;20107;-67
2023/06/27 08:45:35;;;;;;;7.57;3.80;;;;;;;;;;5035471;28;20423;-67
2023/06/27 08:48:01;;;;;;;3.63;2.75;;;;;;;;;;5000977;28;20049;-67
2023/06/27 08:50:27;;;;;;;5.60;3.15;;;;;;;;;;5035386;28;20025;-67
2023/06/27 08:52:57;;;;;;;5.10;3.35;;;;;;;;;;5035087;28;20551;-67
2023/06/27 08:55:30;;;;;;;5.07;3.05;;;;;;;;;;5035312;28;20025;-67
2023/06/27 08:57:57;;;;;;;3.25;3.05;;;;;;;;;;5035424;28;20133;-67
2023/06/27 09:00:24;;;;;;;3.25;2.92;;;;;;;;;;5034924;28;20096;-67
2023/06/27 09:02:50;;;;;;;3.72;3.28;;;;;;;;;;5017260;28;20439;-67
2023/06/27 09:05:15;;;;;;;3.33;2.78;;;;;;;;;;5034737;28;20061;-67
2023/06/27 09:07:41;;;;;;;4.03;2.97;;;;;;;;;;5016948;28;20042;-67
2023/06/27 09:10:08;;;;;;;4.45;3.28;;;;;;;;;;5051151;23;20092;-67
2023/06/27 09:12:34;;;;;;;3.25;2.95;;;;;;;;;;5059296;23;20725;-67
2023/06/27 09:14:59;;;;;;;4.07;2.97;;;;;;;;;;5054565;28;20067;-67
2023/06/27 09:17:24;;;;;;;2.78;2.53;;;;;;;;;;5054841;28;20029;-67
2023/06/27 09:19:50;;;;;;;3.58;3.08;;;;;;;;;;5036715;28;20545;-67
2023/06/27 09:22:18;;;;;;;4.22;2.80;;;;;;;;;;5055015;28;20024;-67
2023/06/27 09:24:44;;;;;;;3.10;2.90;;;;;;;;;;5054700;28;20037;-67
2023/06/27 09:27:31;;;;;;;3.63;2.45;;;;;;;;;;5036486;28;20051;-66
2023/06/27 09:30:03;;;;;;;5.70;2.67;;;;;;;;;;5036421;28;20025;-66
2023/06/27 09:32:28;;;;;;;4.10;2.47;;;;;;;;;;5052973;28;20119;-67
2023/06/27 09:34:55;;;;;;;4.28;2.53;;;;;;;;;;5053008;28;20105;-67
2023/06/27 09:37:20;;;;;;;2.20;2.10;;;;;;;;;;5054500;28;20033;-66
2023/06/27 09:39:45;;;;;;;5.20;2.47;;;;;;;;;;5054158;28;20028;-66
2023/06/27 09:42:11;;;;;;;3.05;2.38;;;;;;;;;;5054401;28;20083;-72
2023/06/27 09:44:37;;;;;;;2.95;2.40;;;;;;;;;;5054327;28;20064;-72
2023/06/27 09:47:08;;;;;;;4.05;2.28;;;;;;;;;;5054219;28;20021;-72
2023/06/27 09:49:34;;;;;;;5.25;2.30;;;;;;;;;;5053902;28;20044;-72
2023/06/27 09:52:03;;;;;;;5.13;2.40;;;;;;;;;;5036114;28;20029;-72
2023/06/27 09:54:28;;;;;;;4.13;2.50;;;;;;;;;;5053906;28;20021;-72
2023/06/27 09:56:56;;;;;;;3.58;2.35;;;;;;;;;;5036140;28;20452;-72
2023/06/27 09:59:22;;;;;;;5.68;2.67;;;;;;;;;;5053819;28;20037;-72
2023/06/27 10:01:49;;;;;;;4.70;2.33;;;;;;;;;;5053818;28;20524;-72
2023/06/27 10:04:15;;;;;;;2.35;1.80;;;;;;;;;;5054023;28;20083;-72
2023/06/27 10:06:40;;;;;;;3.20;1.95;;;;;;;;;;5053998;28;20013;-72
2023/06/27 10:09:05;;;;;;;2.13;1.95;;;;;;;;;;5053611;28;20120;-66
2023/06/27 10:11:33;;;;;;;3.10;2.00;;;;;;;;;;5053665;28;20028;-66
2023/06/27 10:13:59;;;;;;;2.28;1.92;;;;;;;;;;5053541;28;20479;-66
2023/06/27 10:16:26;;;;;;;2.17;1.75;;;;;;;;;;5053629;28;20021;-66
2023/06/27 10:18:52;;;;;;;3.20;2.03;;;;;;;;;;5053603;28;20037;-66
2023/06/27 10:21:18;;;;;;;3.13;1.70;;;;;;;;;;5053724;28;20064;-66
2023/06/27 10:23:53;;;;;;;2.70;1.70;;;;;;;;;;5053184;28;20032;-66
2023/06/27 10:26:19;;;;;;;1.85;1.58;;;;;;;;;;5053509;28;20610;-66
2023/06/27 10:28:51;;;;;;;2.60;1.67;;;;;;;;;;5035526;28;20121;-66
2023/06/27 10:31:36;;;;;;;4.78;1.77;;;;;;;;;;5036015;28;20104;-66
2023/06/27 10:34:02;;;;;;;1.63;1.45;;;;;;;;;;5036177;28;20029;-66
2023/06/27 10:36:47;;;;;;;2.85;1.40;;;;;;;;;;5053378;28;20111;-66
2023/06/27 10:39:23;;;;;;;1.77;1.48;;;;;;;;;;5053194;28;20039;-66
2023/06/27 10:41:49;;;;;;;3.67;1.80;;;;;;;;;;5053666;28;20037;-66
2023/06/27 10:44:17;;;;;;;1.80;1.70;;;;;;;;;;5035811;28;20100;-66
2023/06/27 10:46:43;;;;;;;4.05;1.73;;;;;;;;;;5035582;28;20037;-66
2023/06/27 10:49:09;;;;;;;2.33;1.80;;;;;;;;;;5053479;28;20033;-66
2023/06/27 10:51:41;;;;;;;1.73;1.63;;;;;;;;;;5053300;28;20071;-66
2023/06/27 10:54:07;;;;;;;1.98;1.75;;;;;;;;;;5035776;28;20463;-66
2023/06/27 10:56:33;;;;;;;2.00;1.70;;;;;;;;;;5051971;28;20051;-66
2023/06/27 10:58:58;;;;;;;1.63;1.52;;;;;;;;;;5053487;28;20029;-66
2023/06/27 11:01:24;;;;;;;1.70;1.60;;;;;;;;;;5053177;28;20044;-66
2023/06/27 11:03:56;;;;;;;1.80;1.58;;;;;;;;;;5035315;28;20166;-65
2023/06/27 11:06:22;;;;;;;1.42;1.33;;;;;;;;;;5053462;28;20036;-66
2023/06/27 11:08:54;;;;;;;1.35;1.35;;;;;;;;;;5053040;28;20040;-66
2023/06/27 11:11:26;;;;;;;3.28;1.67;;;;;;;;;;5053111;28;20162;-66
2023/06/27 11:14:02;;;;;;;1.60;1.50;;;;;;;;;;5052928;28;20048;-66
2023/06/27 11:16:28;;;;;;;1.70;1.50;;;;;;;;;;5051715;28;20360;-66
2023/06/27 11:18:54;;;;;;;3.72;1.73;;;;;;;;;;5053039;28;20040;-66
2023/06/27 11:21:21;;;;;;;1.88;1.77;;;;;;;;;;5053284;28;20040;-66
2023/06/27 11:23:47;;;;;;;1.83;1.40;;;;;;;;;;5051713;28;20036;-66
2023/06/27 11:26:12;;;;;;;1.70;1.58;;;;;;;;;;5052961;28;20390;-66
2023/06/27 11:28:37;;;;;;;4.50;1.48;;;;;;;;;;5053130;28;20037;-66
2023/06/27 11:31:03;;;;;;;4.25;1.50;;;;;;;;;;5052956;28;20021;-67
2023/06/27 11:33:28;;;;;;;1.80;1.65;;;;;;;;;;5053918;28;20370;-66
2023/06/27 11:35:58;;;;;;;2.05;1.80;;;;;;;;;;5056528;28;20079;-66
2023/06/27 11:38:23;;;;;;;2.28;1.50;;;;;;;;;;5057037;28;20367;-66
2023/06/27 11:40:49;;;;;;;2.22;1.50;;;;;;;;;;5038561;28;20036;-66
2023/06/27 11:43:18;;;;;;;3.00;1.58;;;;;;;;;;5056363;28;20029;-66
2023/06/27 11:45:51;;;;;;;1.45;1.35;;;;;;;;;;5055073;28;20116;-66
2023/06/27 11:48:17;;;;;;;2.50;1.50;;;;;;;;;;5038991;28;20379;-66
2023/06/27 11:50:52;;;;;;;2.42;1.60;;;;;;;;;;5038734;28;20020;-66
2023/06/27 11:53:27;;;;;;;2.40;1.45;;;;;;;;;;5038202;28;20067;-66
2023/06/27 11:55:53;;;;;;;3.60;1.95;;;;;;;;;;5038615;28;20107;-67
2023/06/27 11:58:26;;;;;;;3.58;1.65;;;;;;;;;;5056053;28;20033;-66
2023/06/27 12:00:51;;;;;;;1.73;1.40;;;;;;;;;;5038177;28;20032;-66
2023/06/27 12:03:23;;;;;;;3.33;1.30;;;;;;;;;;5056524;28;20032;-67
2023/06/27 12:05:49;;;;;;;2.47;1.70;;;;;;;;;;5055935;28;20033;-66
2023/06/27 12:08:20;;;;;;;2.65;1.42;;;;;;;;;;5038557;28;20463;-71
2023/06/27 12:10:52;;;;;;;2.03;1.48;;;;;;;;;;5038099;28;20538;-71
2023/06/27 12:13:17;;;;;;;3.28;1.60;;;;;;;;;;5038213;28;20041;-71
2023/06/27 12:15:46;;;;;;;2.20;1.42;;;;;;;;;;5054515;28;20082;-72
2023/06/27 12:18:23;;;;;;;1.77;1.15;;;;;;;;;;5037886;28;20040;-71
2023/06/27 12:20:49;;;;;;;1.65;1.42;;;;;;;;;;5055893;28;20033;-71
2023/06/27 12:23:14;;;;;;;1.52;1.38;;;;;;;;;;5055605;28;20112;-72
2023/06/27 12:25:40;;;;;;;2.40;1.30;;;;;;;;;;5037692;28;20535;-72
2023/06/27 12:28:06;;;;;;;1.92;1.40;;;;;;;;;;5037683;28;20036;-72
2023/06/27 12:30:31;;;;;;;2.78;1.33;;;;;;;;;;5055508;28;20433;-72
2023/06/27 12:32:56;;;;;;;3.70;1.58;;;;;;;;;;5055453;28;20017;-71
2023/06/27 12:35:22;;;;;;;1.40;1.30;;;;;;;;;;5055673;28;20055;-71
2023/06/27 12:37:47;;;;;;;1.60;1.50;;;;;;;;;;5055354;28;20517;-71
2023/06/27 12:40:13;;;;;;;1.70;1.40;;;;;;;;;;5055287;28;20090;-72
2023/06/27 12:42:40;;;;;;;2.03;1.20;;;;;;;;;;5055207;28;20082;-72
2023/06/27 12:45:05;;;;;;;2.88;1.17;;;;;;;;;;5036562;28;20040;-72
2023/06/27 12:47:30;;;;;;;2.60;1.52;;;;;;;;;;5037256;28;20021;-72
2023/06/27 12:49:55;;;;;;;2.70;1.55;;;;;;;;;;5055132;28;20031;-72
2023/06/27 12:52:21;;;;;;;3.75;1.50;;;;;;;;;;5055099;28;20024;-71
2023/06/27 12:54:46;;;;;;;2.50;1.40;;;;;;;;;;5055310;28;20056;-71
2023/06/27 12:57:11;;;;;;;2.80;1.50;;;;;;;;;;5055237;28;20036;-71
2023/06/27 12:59:38;;;;;;;2.63;1.27;;;;;;;;;;5037048;28;20021;-71
2023/06/27 13:02:03;;;;;;;2.80;1.35;;;;;;;;;;5055153;28;20104;-72
2023/06/27 13:04:30;;;;;;;3.03;1.30;;;;;;;;;;5055101;28;20458;-72
2023/06/27 13:06:55;;;;;;;1.65;1.27;;;;;;;;;;5054237;28;20029;-72
2023/06/27 13:09:21;;;;;;;3.45;1.40;;;;;;;;;;5053608;28;20025;-72
2023/06/27 13:11:46;;;;;;;6.70;1.75;;;;;;;;;;5048670;28;20052;-72
2023/06/27 13:14:11;;;;;;;2.65;1.30;;;;;;;;;;5050441;28;20068;-72
2023/06/27 13:16:37;;;;;;;1.35;1.25;;;;;;;;;;5056525;28;20024;-72
2023/06/27 13:19:07;;;;;;;1.45;1.35;;;;;;;;;;5074179;28;20130;-67
2023/06/27 13:21:34;;;;;;;2.05;1.50;;;;;;;;;;5074119;28;20020;-66
2023/06/27 13:24:00;;;;;;;2.00;1.30;;;;;;;;;;5073989;28;20436;-67
2023/06/27 13:26:25;;;;;;;2.72;1.25;;;;;;;;;;5074154;28;20033;-67
2023/06/27 13:28:51;;;;;;;1.90;1.20;;;;;;;;;;5038812;28;20081;-67
2023/06/27 13:31:16;;;;;;;1.73;1.30;;;;;;;;;;5074056;28;20032;-67
2023/06/27 13:33:41;;;;;;;2.95;1.30;;;;;;;;;;5062146;28;20026;-71
2023/06/27 13:36:08;;;;;;;2.58;1.42;;;;;;;;;;5041181;28;20472;-66
2023/06/27 13:38:34;;;;;;;1.58;1.40;;;;;;;;;;5044396;28;20026;-67
2023/06/27 13:40:59;;;;;;;2.42;1.13;;;;;;;;;;5039492;28;20364;-66
2023/06/27 13:43:24;;;;;;;1.92;1.13;;;;;;;;;;5033503;28;20116;-62
2023/06/27 13:45:53;;;;;;;1.98;1.25;;;;;;;;;;5032183;28;20435;-67
2023/06/27 13:48:19;;;;;;;1.38;1.20;;;;;;;;;;5033445;28;20028;-67
2023/06/27 13:50:44;;;;;;;1.17;0.73;;;;;;;;;;5050069;28;20632;-68
2023/06/27 13:53:12;;;;;;;2.95;1.02;;;;;;;;;;5032553;28;20028;-67
2023/06/27 13:55:37;;;;;;;4.13;1.02;;;;;;;;;;5033908;28;20112;-67
2023/06/27 13:58:02;;;;;;;3.88;1.75;;;;;;;;;;5033817;28;20064;-68
2023/06/27 14:00:28;;;;;;;4.05;1.20;;;;;;;;;;5034433;28;20044;-68
2023/06/27 14:02:53;;;;;;;2.97;1.50;;;;;;;;;;5031334;28;20060;-68
2023/06/27 14:05:31;;;;;;;1.35;1.10;;;;;;;;;;5031218;28;20061;-68
2023/06/27 14:07:57;;;;;;;2.35;1.25;;;;;;;;;;5032668;28;20076;-68
2023/06/27 14:10:23;;;;;;;1.30;1.20;;;;;;;;;;5031532;28;20037;-68
2023/06/27 14:12:48;;;;;;;1.15;0.93;;;;;;;;;;5032643;28;20045;-69
2023/06/27 14:15:14;;;;;;;1.08;1.02;;;;;;;;;;5032652;28;20036;-68
2023/06/27 14:17:39;;;;;;;1.00;0.93;;;;;;;;;;5032526;28;20044;-68
2023/06/27 14:20:05;;;;;;;2.53;1.15;;;;;;;;;;5032326;28;20033;-68
2023/06/27 14:22:30;;;;;;;1.30;1.05;;;;;;;;;;5031179;28;20037;-68
2023/06/27 14:24:56;;;;;;;1.58;1.48;;;;;;;;;;5015473;28;20025;-68
2023/06/27 14:27:24;;;;;;;0.90;0.90;;;;;;;;;;5033851;28;20455;-68
2023/06/27 14:29:51;;;;;;;1.33;1.13;;;;;;;;;;5033263;28;20026;-69
2023/06/27 14:32:17;;;;;;;2.10;1.30;;;;;;;;;;5055007;22;20049;-71
2023/06/27 14:34:43;;;;;;;1.23;0.98;;;;;;;;;;5053726;28;20032;-71
2023/06/27 14:37:08;;;;;;;1.30;1.20;;;;;;;;;;5053220;28;20031;-71
2023/06/27 14:39:34;;;;;;;1.17;1.13;;;;;;;;;;5053425;28;20032;-71